sensor_id;sensor_type;location;lat;lon;timestamp;temperature;humidity
54578;DHT22;40474;49.330;8.130;2022-08-18T00:01:40;23.00;85.10
54578;DHT22;40474;49.330;8.130;2022-08-18T00:04:08;23.00;84.90
54578;DHT22;40474;49.330;8.130;2022-08-18T00:06:55;23.00;84.80
54578;DHT22;40474;49.330;8.130;2022-08-18T00:09:21;23.00;84.70
54578;DHT22;40474;49.330;8.130;2022-08-18T00:11:48;23.00;84.90
54578;DHT22;40474;49.330;8.130;2022-08-18T00:14:16;23.00;85.10
54578;DHT22;40474;49.330;8.130;2022-08-18T00:16:49;23.00;85.30
54578;DHT22;40474;49.330;8.130;2022-08-18T00:19:16;22.90;87.60
54578;DHT22;40474;49.330;8.130;2022-08-18T00:21:43;22.80;88.00
54578;DHT22;40474;49.330;8.130;2022-08-18T00:24:10;22.60;90.00
54578;DHT22;40474;49.330;8.130;2022-08-18T00:26:36;22.60;91.80
54578;DHT22;40474;49.330;8.130;2022-08-18T00:29:03;22.50;93.30
54578;DHT22;40474;49.330;8.130;2022-08-18T00:31:30;22.30;94.20
54578;DHT22;40474;49.330;8.130;2022-08-18T00:33:57;22.20;93.60
54578;DHT22;40474;49.330;8.130;2022-08-18T00:36:24;22.20;93.20
54578;DHT22;40474;49.330;8.130;2022-08-18T00:38:51;22.20;94.80
54578;DHT22;40474;49.330;8.130;2022-08-18T00:41:18;22.00;95.20
54578;DHT22;40474;49.330;8.130;2022-08-18T00:43:46;21.90;95.90
54578;DHT22;40474;49.330;8.130;2022-08-18T00:46:15;21.90;95.60
54578;DHT22;40474;49.330;8.130;2022-08-18T00:48:42;21.90;95.90
54578;DHT22;40474;49.330;8.130;2022-08-18T00:51:15;21.90;95.20
54578;DHT22;40474;49.330;8.130;2022-08-18T00:53:47;21.90;96.00
54578;DHT22;40474;49.330;8.130;2022-08-18T00:56:23;21.90;96.20
54578;DHT22;40474;49.330;8.130;2022-08-18T00:59:00;21.90;95.80
54578;DHT22;40474;49.330;8.130;2022-08-18T01:01:29;21.80;96.60
54578;DHT22;40474;49.330;8.130;2022-08-18T01:03:59;21.80;96.40
54578;DHT22;40474;49.330;8.130;2022-08-18T01:06:27;21.70;96.60
54578;DHT22;40474;49.330;8.130;2022-08-18T01:08:57;21.70;97.10
54578;DHT22;40474;49.330;8.130;2022-08-18T01:11:24;21.60;96.40
54578;DHT22;40474;49.330;8.130;2022-08-18T01:13:51;21.60;96.80
54578;DHT22;40474;49.330;8.130;2022-08-18T01:16:19;21.60;96.50
54578;DHT22;40474;49.330;8.130;2022-08-18T01:19:21;21.50;96.90
54578;DHT22;40474;49.330;8.130;2022-08-18T01:22:10;21.50;98.20
54578;DHT22;40474;49.330;8.130;2022-08-18T01:24:38;21.40;97.40
54578;DHT22;40474;49.330;8.130;2022-08-18T01:27:23;21.40;98.00
54578;DHT22;40474;49.330;8.130;2022-08-18T01:29:51;21.40;98.40
54578;DHT22;40474;49.330;8.130;2022-08-18T01:32:19;21.40;97.70
54578;DHT22;40474;49.330;8.130;2022-08-18T01:34:47;21.40;98.50
54578;DHT22;40474;49.330;8.130;2022-08-18T01:37:15;21.30;97.50
54578;DHT22;40474;49.330;8.130;2022-08-18T01:39:43;21.40;98.50
54578;DHT22;40474;49.330;8.130;2022-08-18T01:42:30;21.30;98.40
54578;DHT22;40474;49.330;8.130;2022-08-18T01:44:57;21.30;98.30
54578;DHT22;40474;49.330;8.130;2022-08-18T01:47:24;21.30;97.90
54578;DHT22;40474;49.330;8.130;2022-08-18T01:49:51;21.20;98.80
54578;DHT22;40474;49.330;8.130;2022-08-18T01:52:20;21.20;97.70
54578;DHT22;40474;49.330;8.130;2022-08-18T01:54:47;21.20;97.90
54578;DHT22;40474;49.330;8.130;2022-08-18T01:57:14;21.10;98.80
54578;DHT22;40474;49.330;8.130;2022-08-18T01:59:41;21.10;98.30
54578;DHT22;40474;49.330;8.130;2022-08-18T02:02:09;21.20;98.40
54578;DHT22;40474;49.330;8.130;2022-08-18T02:04:43;21.20;98.20
54578;DHT22;40474;49.330;8.130;2022-08-18T02:07:11;21.10;98.90
54578;DHT22;40474;49.330;8.130;2022-08-18T02:09:38;21.00;98.50
54578;DHT22;40474;49.330;8.130;2022-08-18T02:12:06;21.00;97.80
54578;DHT22;40474;49.330;8.130;2022-08-18T02:14:33;21.00;98.90
54578;DHT22;40474;49.330;8.130;2022-08-18T02:17:02;21.00;99.20
54578;DHT22;40474;49.330;8.130;2022-08-18T02:19:36;20.90;99.10
54578;DHT22;40474;49.330;8.130;2022-08-18T02:22:04;20.90;98.20
54578;DHT22;40474;49.330;8.130;2022-08-18T02:24:31;20.90;99.00
54578;DHT22;40474;49.330;8.130;2022-08-18T02:26:58;20.80;98.20
54578;DHT22;40474;49.330;8.130;2022-08-18T02:29:25;20.90;98.50
54578;DHT22;40474;49.330;8.130;2022-08-18T02:31:51;20.90;98.60
54578;DHT22;40474;49.330;8.130;2022-08-18T02:34:18;20.90;99.30
54578;DHT22;40474;49.330;8.130;2022-08-18T02:36:45;20.90;98.60
54578;DHT22;40474;49.330;8.130;2022-08-18T02:39:12;20.90;99.70
54578;DHT22;40474;49.330;8.130;2022-08-18T02:41:38;20.90;99.30
54578;DHT22;40474;49.330;8.130;2022-08-18T02:44:06;20.80;99.30
54578;DHT22;40474;49.330;8.130;2022-08-18T02:46:32;20.80;98.90
54578;DHT22;40474;49.330;8.130;2022-08-18T02:48:59;20.70;99.60
54578;DHT22;40474;49.330;8.130;2022-08-18T02:51:26;20.80;99.70
54578;DHT22;40474;49.330;8.130;2022-08-18T02:53:53;20.80;99.70
54578;DHT22;40474;49.330;8.130;2022-08-18T02:56:21;20.70;99.60
54578;DHT22;40474;49.330;8.130;2022-08-18T02:59:08;20.70;99.50
54578;DHT22;40474;49.330;8.130;2022-08-18T03:01:36;20.70;99.90
54578;DHT22;40474;49.330;8.130;2022-08-18T03:04:05;20.80;99.80
54578;DHT22;40474;49.330;8.130;2022-08-18T03:06:32;20.80;99.30
54578;DHT22;40474;49.330;8.130;2022-08-18T03:08:59;20.80;99.70
54578;DHT22;40474;49.330;8.130;2022-08-18T03:11:27;20.80;99.90
54578;DHT22;40474;49.330;8.130;2022-08-18T03:13:55;20.70;99.90
54578;DHT22;40474;49.330;8.130;2022-08-18T03:16:22;20.60;99.50
54578;DHT22;40474;49.330;8.130;2022-08-18T03:18:50;20.70;99.70
54578;DHT22;40474;49.330;8.130;2022-08-18T03:21:18;20.60;99.90
54578;DHT22;40474;49.330;8.130;2022-08-18T03:23:47;20.60;99.90
54578;DHT22;40474;49.330;8.130;2022-08-18T03:26:27;20.60;99.60
54578;DHT22;40474;49.330;8.130;2022-08-18T03:28:55;20.60;99.70
54578;DHT22;40474;49.330;8.130;2022-08-18T03:31:23;20.60;99.90
54578;DHT22;40474;49.330;8.130;2022-08-18T03:33:54;20.60;99.90
54578;DHT22;40474;49.330;8.130;2022-08-18T03:36:25;20.60;99.90
54578;DHT22;40474;49.330;8.130;2022-08-18T03:38:52;20.60;99.90
54578;DHT22;40474;49.330;8.130;2022-08-18T03:41:21;20.40;99.90
54578;DHT22;40474;49.330;8.130;2022-08-18T03:44:09;20.40;99.90
54578;DHT22;40474;49.330;8.130;2022-08-18T03:46:36;20.30;99.90
54578;DHT22;40474;49.330;8.130;2022-08-18T03:49:03;20.20;99.90
54578;DHT22;40474;49.330;8.130;2022-08-18T03:51:31;20.20;99.90
54578;DHT22;40474;49.330;8.130;2022-08-18T03:53:59;20.20;99.90
54578;DHT22;40474;49.330;8.130;2022-08-18T03:56:27;20.20;99.90
54578;DHT22;40474;49.330;8.130;2022-08-18T03:58:55;20.20;99.90
54578;DHT22;40474;49.330;8.130;2022-08-18T04:01:24;20.20;99.90
54578;DHT22;40474;49.330;8.130;2022-08-18T04:03:54;20.20;99.90
54578;DHT22;40474;49.330;8.130;2022-08-18T04:06:23;20.20;99.90
54578;DHT22;40474;49.330;8.130;2022-08-18T04:08:57;20.30;99.90
54578;DHT22;40474;49.330;8.130;2022-08-18T04:11:25;20.30;99.90
54578;DHT22;40474;49.330;8.130;2022-08-18T04:13:51;20.30;99.90
54578;DHT22;40474;49.330;8.130;2022-08-18T04:16:19;20.30;99.90
54578;DHT22;40474;49.330;8.130;2022-08-18T04:18:46;20.40;99.90
54578;DHT22;40474;49.330;8.130;2022-08-18T04:21:12;20.40;99.90
54578;DHT22;40474;49.330;8.130;2022-08-18T04:23:39;20.40;99.90
54578;DHT22;40474;49.330;8.130;2022-08-18T04:26:10;20.30;99.90
54578;DHT22;40474;49.330;8.130;2022-08-18T04:28:45;20.30;99.90
54578;DHT22;40474;49.330;8.130;2022-08-18T04:31:12;20.30;99.90
54578;DHT22;40474;49.330;8.130;2022-08-18T04:33:40;20.30;99.90
54578;DHT22;40474;49.330;8.130;2022-08-18T04:36:12;20.30;99.90
54578;DHT22;40474;49.330;8.130;2022-08-18T04:38:45;20.30;99.90
54578;DHT22;40474;49.330;8.130;2022-08-18T04:41:12;20.30;99.90
54578;DHT22;40474;49.330;8.130;2022-08-18T04:43:39;20.30;99.90
54578;DHT22;40474;49.330;8.130;2022-08-18T04:46:06;20.20;99.90
54578;DHT22;40474;49.330;8.130;2022-08-18T04:48:34;20.30;99.90
54578;DHT22;40474;49.330;8.130;2022-08-18T04:51:06;20.20;99.90
54578;DHT22;40474;49.330;8.130;2022-08-18T04:53:33;20.20;99.90
54578;DHT22;40474;49.330;8.130;2022-08-18T04:56:20;20.20;99.90
54578;DHT22;40474;49.330;8.130;2022-08-18T04:58:54;20.10;99.90
54578;DHT22;40474;49.330;8.130;2022-08-18T05:01:22;20.10;99.90
54578;DHT22;40474;49.330;8.130;2022-08-18T05:03:50;20.10;99.90
54578;DHT22;40474;49.330;8.130;2022-08-18T05:06:18;20.20;99.90
54578;DHT22;40474;49.330;8.130;2022-08-18T05:08:44;20.20;99.90
54578;DHT22;40474;49.330;8.130;2022-08-18T05:11:13;20.10;99.90
54578;DHT22;40474;49.330;8.130;2022-08-18T05:13:40;20.20;99.90
54578;DHT22;40474;49.330;8.130;2022-08-18T05:16:08;20.20;99.90
54578;DHT22;40474;49.330;8.130;2022-08-18T05:18:44;20.30;99.90
54578;DHT22;40474;49.330;8.130;2022-08-18T05:21:11;20.30;99.90
54578;DHT22;40474;49.330;8.130;2022-08-18T05:23:42;20.30;99.90
54578;DHT22;40474;49.330;8.130;2022-08-18T05:26:10;20.40;99.90
54578;DHT22;40474;49.330;8.130;2022-08-18T05:28:36;20.40;99.90
54578;DHT22;40474;49.330;8.130;2022-08-18T05:31:07;20.50;99.90
54578;DHT22;40474;49.330;8.130;2022-08-18T05:33:39;20.50;99.90
54578;DHT22;40474;49.330;8.130;2022-08-18T05:39:05;20.50;99.90
54578;DHT22;40474;49.330;8.130;2022-08-18T05:41:38;20.50;99.90
54578;DHT22;40474;49.330;8.130;2022-08-18T05:44:09;20.60;99.90
54578;DHT22;40474;49.330;8.130;2022-08-18T05:49:04;20.70;99.90
54578;DHT22;40474;49.330;8.130;2022-08-18T05:51:33;20.70;99.90
54578;DHT22;40474;49.330;8.130;2022-08-18T05:54:02;20.70;99.90
54578;DHT22;40474;49.330;8.130;2022-08-18T05:56:47;20.70;99.90
54578;DHT22;40474;49.330;8.130;2022-08-18T05:59:18;20.80;99.90
54578;DHT22;40474;49.330;8.130;2022-08-18T06:01:47;20.80;99.90
54578;DHT22;40474;49.330;8.130;2022-08-18T06:07:04;21.10;99.90
54578;DHT22;40474;49.330;8.130;2022-08-18T06:09:38;21.10;99.90
54578;DHT22;40474;49.330;8.130;2022-08-18T06:12:18;21.10;99.70
54578;DHT22;40474;49.330;8.130;2022-08-18T06:14:45;21.20;99.80
54578;DHT22;40474;49.330;8.130;2022-08-18T06:17:22;21.30;99.60
54578;DHT22;40474;49.330;8.130;2022-08-18T06:20:00;21.40;99.30
54578;DHT22;40474;49.330;8.130;2022-08-18T06:27:50;21.40;99.80
54578;DHT22;40474;49.330;8.130;2022-08-18T06:30:22;21.50;99.90
54578;DHT22;40474;49.330;8.130;2022-08-18T06:32:57;21.50;99.90
54578;DHT22;40474;49.330;8.130;2022-08-18T06:35:40;21.50;99.90
54578;DHT22;40474;49.330;8.130;2022-08-18T06:44:21;21.60;99.90
54578;DHT22;40474;49.330;8.130;2022-08-18T06:47:01;21.60;99.20
54578;DHT22;40474;49.330;8.130;2022-08-18T06:49:53;21.50;98.20
54578;DHT22;40474;49.330;8.130;2022-08-18T06:52:17;21.60;98.40
54578;DHT22;40474;49.330;8.130;2022-08-18T06:54:44;21.70;98.30
54578;DHT22;40474;49.330;8.130;2022-08-18T06:57:21;21.70;98.70
54578;DHT22;40474;49.330;8.130;2022-08-18T06:59:58;21.60;97.50
54578;DHT22;40474;49.330;8.130;2022-08-18T07:02:30;21.60;98.10
54578;DHT22;40474;49.330;8.130;2022-08-18T07:05:06;21.70;97.20
54578;DHT22;40474;49.330;8.130;2022-08-18T07:07:35;21.80;96.30
54578;DHT22;40474;49.330;8.130;2022-08-18T07:12:38;22.00;97.20
54578;DHT22;40474;49.330;8.130;2022-08-18T07:15:05;22.00;97.20
54578;DHT22;40474;49.330;8.130;2022-08-18T07:17:34;22.00;96.30
54578;DHT22;40474;49.330;8.130;2022-08-18T07:20:20;22.20;94.80
54578;DHT22;40474;49.330;8.130;2022-08-18T07:22:56;22.30;96.10
54578;DHT22;40474;49.330;8.130;2022-08-18T07:25:26;22.40;96.20
54578;DHT22;40474;49.330;8.130;2022-08-18T07:27:54;22.50;95.80
54578;DHT22;40474;49.330;8.130;2022-08-18T07:35:17;22.70;95.50
54578;DHT22;40474;49.330;8.130;2022-08-18T07:37:47;22.70;94.10
54578;DHT22;40474;49.330;8.130;2022-08-18T07:40:19;22.70;94.70
54578;DHT22;40474;49.330;8.130;2022-08-18T07:45:32;23.10;94.50
54578;DHT22;40474;49.330;8.130;2022-08-18T07:48:04;23.20;94.90
54578;DHT22;40474;49.330;8.130;2022-08-18T07:56:41;23.10;96.20
54578;DHT22;40474;49.330;8.130;2022-08-18T07:59:18;22.90;96.20
54578;DHT22;40474;49.330;8.130;2022-08-18T08:07:11;23.00;96.10
54578;DHT22;40474;49.330;8.130;2022-08-18T08:14:48;23.10;95.60
54578;DHT22;40474;49.330;8.130;2022-08-18T08:19:51;22.90;96.20
54578;DHT22;40474;49.330;8.130;2022-08-18T08:30:44;23.00;96.00
54578;DHT22;40474;49.330;8.130;2022-08-18T08:33:18;23.10;95.70
54578;DHT22;40474;49.330;8.130;2022-08-18T08:35:55;23.00;95.80
54578;DHT22;40474;49.330;8.130;2022-08-18T08:38:25;22.90;95.70
54578;DHT22;40474;49.330;8.130;2022-08-18T08:44:10;22.80;96.00
54578;DHT22;40474;49.330;8.130;2022-08-18T08:46:48;22.80;96.10
54578;DHT22;40474;49.330;8.130;2022-08-18T08:49:23;22.80;96.00
54578;DHT22;40474;49.330;8.130;2022-08-18T08:51:55;22.70;96.30
54578;DHT22;40474;49.330;8.130;2022-08-18T08:54:25;22.70;96.60
54578;DHT22;40474;49.330;8.130;2022-08-18T08:56:53;22.60;96.70
54578;DHT22;40474;49.330;8.130;2022-08-18T08:59:21;22.60;96.70
54578;DHT22;40474;49.330;8.130;2022-08-18T09:02:05;22.50;96.70
54578;DHT22;40474;49.330;8.130;2022-08-18T09:05:08;22.50;97.00
54578;DHT22;40474;49.330;8.130;2022-08-18T09:10:15;22.70;96.70
54578;DHT22;40474;49.330;8.130;2022-08-18T09:15:48;22.80;97.00
54578;DHT22;40474;49.330;8.130;2022-08-18T09:20:52;23.20;96.90
54578;DHT22;40474;49.330;8.130;2022-08-18T09:23:29;23.20;96.10
54578;DHT22;40474;49.330;8.130;2022-08-18T09:25:58;23.30;95.90
54578;DHT22;40474;49.330;8.130;2022-08-18T09:36:20;24.20;94.20
54578;DHT22;40474;49.330;8.130;2022-08-18T09:38:47;24.30;93.70
54578;DHT22;40474;49.330;8.130;2022-08-18T09:41:35;24.60;93.20
54578;DHT22;40474;49.330;8.130;2022-08-18T09:44:04;25.20;92.70
54578;DHT22;40474;49.330;8.130;2022-08-18T09:46:58;26.40;91.30
54578;DHT22;40474;49.330;8.130;2022-08-18T09:51:59;29.50;79.00
54578;DHT22;40474;49.330;8.130;2022-08-18T09:54:28;29.80;71.50
54578;DHT22;40474;49.330;8.130;2022-08-18T10:02:05;27.90;79.40
54578;DHT22;40474;49.330;8.130;2022-08-18T10:04:45;27.10;83.50
54578;DHT22;40474;49.330;8.130;2022-08-18T10:07:18;26.70;86.70
54578;DHT22;40474;49.330;8.130;2022-08-18T10:09:48;26.30;86.90
54578;DHT22;40474;49.330;8.130;2022-08-18T10:15:02;25.60;89.00
54578;DHT22;40474;49.330;8.130;2022-08-18T10:22:51;25.30;90.50
54578;DHT22;40474;49.330;8.130;2022-08-18T10:25:34;25.10;90.90
54578;DHT22;40474;49.330;8.130;2022-08-18T10:28:01;25.20;90.60
54578;DHT22;40474;49.330;8.130;2022-08-18T10:33:02;25.40;88.00
54578;DHT22;40474;49.330;8.130;2022-08-18T10:35:57;25.50;88.90
54578;DHT22;40474;49.330;8.130;2022-08-18T10:38:26;25.20;88.90
54578;DHT22;40474;49.330;8.130;2022-08-18T10:41:05;25.10;90.00
54578;DHT22;40474;49.330;8.130;2022-08-18T10:43:41;25.20;90.10
54578;DHT22;40474;49.330;8.130;2022-08-18T10:46:22;25.30;90.10
54578;DHT22;40474;49.330;8.130;2022-08-18T10:49:15;25.30;89.80
54578;DHT22;40474;49.330;8.130;2022-08-18T10:57:26;26.90;85.30
54578;DHT22;40474;49.330;8.130;2022-08-18T10:59:58;27.30;81.10
54578;DHT22;40474;49.330;8.130;2022-08-18T11:02:38;27.40;79.60
54578;DHT22;40474;49.330;8.130;2022-08-18T11:05:09;27.00;79.90
54578;DHT22;40474;49.330;8.130;2022-08-18T11:07:36;26.40;81.20
54578;DHT22;40474;49.330;8.130;2022-08-18T11:10:15;26.00;82.70
54578;DHT22;40474;49.330;8.130;2022-08-18T11:13:11;26.00;83.40
54578;DHT22;40474;49.330;8.130;2022-08-18T11:23:40;26.40;82.70
54578;DHT22;40474;49.330;8.130;2022-08-18T11:26:14;26.60;82.10
54578;DHT22;40474;49.330;8.130;2022-08-18T11:28:44;26.50;80.80
54578;DHT22;40474;49.330;8.130;2022-08-18T11:31:12;26.30;79.90
54578;DHT22;40474;49.330;8.130;2022-08-18T11:33:39;26.20;80.60
54578;DHT22;40474;49.330;8.130;2022-08-18T11:36:06;26.10;82.40
54578;DHT22;40474;49.330;8.130;2022-08-18T11:38:35;26.10;82.10
54578;DHT22;40474;49.330;8.130;2022-08-18T11:41:18;26.10;81.00
54578;DHT22;40474;49.330;8.130;2022-08-18T11:43:45;26.10;81.40
54578;DHT22;40474;49.330;8.130;2022-08-18T11:48:55;26.00;81.30
54578;DHT22;40474;49.330;8.130;2022-08-18T11:51:26;25.90;82.60
54578;DHT22;40474;49.330;8.130;2022-08-18T11:53:58;26.10;82.20
54578;DHT22;40474;49.330;8.130;2022-08-18T11:56:27;26.10;81.50
54578;DHT22;40474;49.330;8.130;2022-08-18T12:02:14;26.00;82.90
54578;DHT22;40474;49.330;8.130;2022-08-18T12:04:41;26.10;83.00
54578;DHT22;40474;49.330;8.130;2022-08-18T12:07:13;25.90;83.30
54578;DHT22;40474;49.330;8.130;2022-08-18T12:09:47;26.00;83.40
54578;DHT22;40474;49.330;8.130;2022-08-18T12:12:43;25.90;83.30
54578;DHT22;40474;49.330;8.130;2022-08-18T12:17:49;25.80;83.60
54578;DHT22;40474;49.330;8.130;2022-08-18T12:20:20;25.60;84.60
54578;DHT22;40474;49.330;8.130;2022-08-18T12:22:46;25.60;85.20
54578;DHT22;40474;49.330;8.130;2022-08-18T12:25:16;25.60;84.50
54578;DHT22;40474;49.330;8.130;2022-08-18T12:27:51;25.60;84.50
54578;DHT22;40474;49.330;8.130;2022-08-18T12:30:18;25.60;84.70
54578;DHT22;40474;49.330;8.130;2022-08-18T12:32:45;25.70;84.80
54578;DHT22;40474;49.330;8.130;2022-08-18T12:35:21;25.90;83.90
54578;DHT22;40474;49.330;8.130;2022-08-18T12:37:50;26.20;83.30
54578;DHT22;40474;49.330;8.130;2022-08-18T12:40:28;26.60;82.20
54578;DHT22;40474;49.330;8.130;2022-08-18T12:42:55;26.80;80.10
54578;DHT22;40474;49.330;8.130;2022-08-18T12:45:23;27.00;79.60
54578;DHT22;40474;49.330;8.130;2022-08-18T12:47:52;27.00;79.00
54578;DHT22;40474;49.330;8.130;2022-08-18T12:50:20;27.30;78.70
54578;DHT22;40474;49.330;8.130;2022-08-18T12:52:57;27.40;78.00
54578;DHT22;40474;49.330;8.130;2022-08-18T12:55:24;27.50;78.00
54578;DHT22;40474;49.330;8.130;2022-08-18T12:57:51;27.60;77.30
54578;DHT22;40474;49.330;8.130;2022-08-18T13:00:22;27.30;77.70
54578;DHT22;40474;49.330;8.130;2022-08-18T13:02:55;27.20;77.60
54578;DHT22;40474;49.330;8.130;2022-08-18T13:05:23;27.20;75.60
54578;DHT22;40474;49.330;8.130;2022-08-18T13:07:53;27.60;76.40
54578;DHT22;40474;49.330;8.130;2022-08-18T13:10:25;27.60;75.00
54578;DHT22;40474;49.330;8.130;2022-08-18T13:13:20;27.60;74.40
54578;DHT22;40474;49.330;8.130;2022-08-18T13:15:54;28.00;71.40
54578;DHT22;40474;49.330;8.130;2022-08-18T13:18:26;28.20;72.10
54578;DHT22;40474;49.330;8.130;2022-08-18T13:20:55;28.20;72.20
54578;DHT22;40474;49.330;8.130;2022-08-18T13:23:23;28.10;71.60
54578;DHT22;40474;49.330;8.130;2022-08-18T13:25:53;28.30;72.00
54578;DHT22;40474;49.330;8.130;2022-08-18T13:28:28;28.30;70.80
54578;DHT22;40474;49.330;8.130;2022-08-18T13:30:59;28.50;69.50
54578;DHT22;40474;49.330;8.130;2022-08-18T13:33:27;28.60;69.80
54578;DHT22;40474;49.330;8.130;2022-08-18T13:36:13;28.50;69.80
54578;DHT22;40474;49.330;8.130;2022-08-18T13:38:40;28.20;69.40
54578;DHT22;40474;49.330;8.130;2022-08-18T13:41:10;28.10;68.20
54578;DHT22;40474;49.330;8.130;2022-08-18T13:43:42;28.40;66.80
54578;DHT22;40474;49.330;8.130;2022-08-18T13:46:15;28.50;69.10
54578;DHT22;40474;49.330;8.130;2022-08-18T13:48:43;28.70;68.60
54578;DHT22;40474;49.330;8.130;2022-08-18T13:51:17;29.30;65.50
54578;DHT22;40474;49.330;8.130;2022-08-18T13:53:53;30.00;64.60
54578;DHT22;40474;49.330;8.130;2022-08-18T13:56:40;30.10;63.40
54578;DHT22;40474;49.330;8.130;2022-08-18T13:59:16;30.20;61.20
54578;DHT22;40474;49.330;8.130;2022-08-18T14:01:46;30.40;60.90
54578;DHT22;40474;49.330;8.130;2022-08-18T14:04:18;30.70;60.90
54578;DHT22;40474;49.330;8.130;2022-08-18T14:06:53;30.60;60.00
54578;DHT22;40474;49.330;8.130;2022-08-18T14:09:23;30.00;60.30
54578;DHT22;40474;49.330;8.130;2022-08-18T14:12:06;29.70;60.10
54578;DHT22;40474;49.330;8.130;2022-08-18T14:14:49;29.90;58.30
54578;DHT22;40474;49.330;8.130;2022-08-18T14:17:54;30.00;59.20
54578;DHT22;40474;49.330;8.130;2022-08-18T14:20:14;30.10;58.20
54578;DHT22;40474;49.330;8.130;2022-08-18T14:23:05;30.00;58.00
54578;DHT22;40474;49.330;8.130;2022-08-18T14:25:58;29.90;59.30
54578;DHT22;40474;49.330;8.130;2022-08-18T14:28:44;29.60;59.00
54578;DHT22;40474;49.330;8.130;2022-08-18T14:31:13;29.40;57.50
54578;DHT22;40474;49.330;8.130;2022-08-18T14:33:46;29.30;59.80
54578;DHT22;40474;49.330;8.130;2022-08-18T14:36:17;29.10;60.50
54578;DHT22;40474;49.330;8.130;2022-08-18T14:38:45;28.90;61.30
54578;DHT22;40474;49.330;8.130;2022-08-18T14:41:17;28.90;62.70
54578;DHT22;40474;49.330;8.130;2022-08-18T14:43:44;28.80;60.20
54578;DHT22;40474;49.330;8.130;2022-08-18T14:46:31;28.70;60.50
54578;DHT22;40474;49.330;8.130;2022-08-18T14:48:58;28.50;63.50
54578;DHT22;40474;49.330;8.130;2022-08-18T14:51:29;28.50;62.70
54578;DHT22;40474;49.330;8.130;2022-08-18T14:53:59;28.40;62.50
54578;DHT22;40474;49.330;8.130;2022-08-18T14:56:26;28.20;65.10
54578;DHT22;40474;49.330;8.130;2022-08-18T14:58:55;27.90;66.00
54578;DHT22;40474;49.330;8.130;2022-08-18T15:01:22;27.70;69.20
54578;DHT22;40474;49.330;8.130;2022-08-18T15:03:52;27.80;69.70
54578;DHT22;40474;49.330;8.130;2022-08-18T15:06:20;27.80;67.90
54578;DHT22;40474;49.330;8.130;2022-08-18T15:08:48;27.70;68.30
54578;DHT22;40474;49.330;8.130;2022-08-18T15:11:15;27.70;69.40
54578;DHT22;40474;49.330;8.130;2022-08-18T15:13:42;27.70;66.30
54578;DHT22;40474;49.330;8.130;2022-08-18T15:16:14;27.70;68.90
54578;DHT22;40474;49.330;8.130;2022-08-18T15:18:41;27.70;69.20
54578;DHT22;40474;49.330;8.130;2022-08-18T15:21:09;27.50;69.40
54578;DHT22;40474;49.330;8.130;2022-08-18T15:24:04;27.40;69.40
54578;DHT22;40474;49.330;8.130;2022-08-18T15:26:52;27.30;69.00
54578;DHT22;40474;49.330;8.130;2022-08-18T15:29:24;27.30;69.70
54578;DHT22;40474;49.330;8.130;2022-08-18T15:31:55;27.20;70.20
54578;DHT22;40474;49.330;8.130;2022-08-18T15:34:27;27.20;68.50
54578;DHT22;40474;49.330;8.130;2022-08-18T15:36:56;27.30;69.50
54578;DHT22;40474;49.330;8.130;2022-08-18T15:39:34;27.20;69.50
54578;DHT22;40474;49.330;8.130;2022-08-18T15:42:07;27.30;69.80
54578;DHT22;40474;49.330;8.130;2022-08-18T15:44:35;27.30;69.30
54578;DHT22;40474;49.330;8.130;2022-08-18T15:47:03;27.30;68.00
54578;DHT22;40474;49.330;8.130;2022-08-18T15:49:34;27.20;69.60
54578;DHT22;40474;49.330;8.130;2022-08-18T15:52:01;27.10;70.90
54578;DHT22;40474;49.330;8.130;2022-08-18T15:54:28;27.00;69.30
54578;DHT22;40474;49.330;8.130;2022-08-18T15:56:55;27.00;71.30
54578;DHT22;40474;49.330;8.130;2022-08-18T15:59:24;27.00;73.30
54578;DHT22;40474;49.330;8.130;2022-08-18T16:01:59;26.90;69.30
54578;DHT22;40474;49.330;8.130;2022-08-18T16:04:27;26.90;72.80
54578;DHT22;40474;49.330;8.130;2022-08-18T16:06:54;26.90;73.60
54578;DHT22;40474;49.330;8.130;2022-08-18T16:09:21;26.80;72.20
54578;DHT22;40474;49.330;8.130;2022-08-18T16:11:48;26.70;72.70
54578;DHT22;40474;49.330;8.130;2022-08-18T16:14:15;26.60;74.90
54578;DHT22;40474;49.330;8.130;2022-08-18T16:16:42;26.60;72.70
54578;DHT22;40474;49.330;8.130;2022-08-18T16:19:09;26.70;72.40
54578;DHT22;40474;49.330;8.130;2022-08-18T16:21:35;26.70;74.60
54578;DHT22;40474;49.330;8.130;2022-08-18T16:24:05;26.80;75.50
54578;DHT22;40474;49.330;8.130;2022-08-18T16:26:32;26.70;71.00
54578;DHT22;40474;49.330;8.130;2022-08-18T16:28:59;26.70;74.20
54578;DHT22;40474;49.330;8.130;2022-08-18T16:31:27;26.60;76.40
54578;DHT22;40474;49.330;8.130;2022-08-18T16:33:55;26.70;72.80
54578;DHT22;40474;49.330;8.130;2022-08-18T16:36:23;26.70;77.90
54578;DHT22;40474;49.330;8.130;2022-08-18T16:38:53;26.60;77.10
54578;DHT22;40474;49.330;8.130;2022-08-18T16:41:23;26.60;73.20
54578;DHT22;40474;49.330;8.130;2022-08-18T16:43:51;26.60;78.30
54578;DHT22;40474;49.330;8.130;2022-08-18T16:46:19;26.50;78.30
54578;DHT22;40474;49.330;8.130;2022-08-18T16:48:48;26.50;78.40
54578;DHT22;40474;49.330;8.130;2022-08-18T16:51:16;26.50;77.70
54578;DHT22;40474;49.330;8.130;2022-08-18T16:53:43;26.50;78.50
54578;DHT22;40474;49.330;8.130;2022-08-18T16:56:13;26.40;78.90
54578;DHT22;40474;49.330;8.130;2022-08-18T16:58:40;26.30;76.50
54578;DHT22;40474;49.330;8.130;2022-08-18T17:01:25;26.30;73.40
54578;DHT22;40474;49.330;8.130;2022-08-18T17:04:16;26.30;78.40
54578;DHT22;40474;49.330;8.130;2022-08-18T17:06:46;26.30;76.40
54578;DHT22;40474;49.330;8.130;2022-08-18T17:09:13;26.20;79.40
54578;DHT22;40474;49.330;8.130;2022-08-18T17:11:40;26.10;78.90
54578;DHT22;40474;49.330;8.130;2022-08-18T17:14:17;26.00;79.60
54578;DHT22;40474;49.330;8.130;2022-08-18T17:16:45;25.90;79.00
54578;DHT22;40474;49.330;8.130;2022-08-18T17:19:13;25.90;80.10
54578;DHT22;40474;49.330;8.130;2022-08-18T17:21:40;25.80;78.20
54578;DHT22;40474;49.330;8.130;2022-08-18T17:24:07;25.80;80.10
54578;DHT22;40474;49.330;8.130;2022-08-18T17:26:54;25.80;80.50
54578;DHT22;40474;49.330;8.130;2022-08-18T17:29:26;25.70;80.50
54578;DHT22;40474;49.330;8.130;2022-08-18T17:31:57;25.70;80.70
54578;DHT22;40474;49.330;8.130;2022-08-18T17:34:35;25.70;81.00
54578;DHT22;40474;49.330;8.130;2022-08-18T17:37:07;25.70;80.90
54578;DHT22;40474;49.330;8.130;2022-08-18T17:39:38;25.60;80.90
54578;DHT22;40474;49.330;8.130;2022-08-18T17:42:07;25.60;81.60
54578;DHT22;40474;49.330;8.130;2022-08-18T17:44:54;25.50;79.20
54578;DHT22;40474;49.330;8.130;2022-08-18T17:47:25;25.50;81.30
54578;DHT22;40474;49.330;8.130;2022-08-18T17:49:55;25.40;78.30
54578;DHT22;40474;49.330;8.130;2022-08-18T17:53:04;25.40;81.40
54578;DHT22;40474;49.330;8.130;2022-08-18T17:55:43;25.30;82.30